ADDS METAR Data INFO
IDs: Format: Raw Decoded Include TAF

Data at: 1026 UTC 20 Jul 2018

METAR for:KHCR (Heber City Muni, UT, US)
Text:KHCR 201015Z AUTO 00000KT 10SM CLR 17/08 A3016 RMK AO2
Temperature: 17.0°C ( 63°F)
Dewpoint: 8.0°C ( 46°F) [RH = 55%]
Pressure (altimeter):30.16 inches Hg (1021.4 mb)
Winds:calm
Visibility:10 or more sm (16+ km)
Ceiling:at least 12,000 feet AGL
Clouds:sky clear below 12,000 feet AGL
QC Flag:automated observation with no human augmentation